Time;durP1;ratioP1;P1;durP2;ratioP2;P2;SDS_P1;SDS_P2;PMS_P1;PMS_P2;Temp;Humidity;BMP_temperature;BMP_pressure;BME280_temperature;BME280_humidity;BME280_pressure;Samples;Min_cycle;Max_cycle;Signal;HPM_P1;HPM_P2
2022/04/01 00:02:20;;;;;;;13.05;9.93;;;5.70;99.90;;;;;;5096161;28;20024;-80
2022/04/01 00:04:45;;;;;;;10.82;9.40;;;5.60;99.90;;;;;;5109919;28;20031;-80
2022/04/01 00:07:11;;;;;;;13.63;10.80;;;5.60;99.90;;;;;;5086897;28;20032;-82
2022/04/01 00:09:37;;;;;;;13.43;11.20;;;5.60;99.90;;;;;;5109746;28;20534;-80
2022/04/01 00:12:07;;;;;;;13.75;9.98;;;5.60;99.90;;;;;;5088968;28;20028;-78
2022/04/01 00:14:33;;;;;;;12.57;10.63;;;5.60;99.90;;;;;;5108250;28;20114;-82
2022/04/01 00:16:59;;;;;;;12.45;10.73;;;5.50;99.90;;;;;;5092405;28;20066;-80
2022/04/01 00:19:25;;;;;;;12.82;10.73;;;5.60;99.90;;;;;;5085323;28;20031;-81
2022/04/01 00:21:50;;;;;;;17.42;11.60;;;5.60;99.90;;;;;;5094930;28;20738;-80
2022/04/01 00:24:16;;;;;;;13.38;11.15;;;5.60;99.90;;;;;;5114042;28;20035;-80
2022/04/01 00:26:42;;;;;;;12.60;11.30;;;5.60;99.90;;;;;;5111404;28;20103;-80
2022/04/01 00:29:16;;;;;;;14.18;11.20;;;5.60;99.90;;;;;;5105707;28;20020;-79
2022/04/01 00:31:43;;;;;;;12.55;10.63;;;5.60;99.90;;;;;;5111431;28;20156;-79
2022/04/01 00:34:17;;;;;;;12.02;10.02;;;5.70;99.90;;;;;;5084004;28;20032;-80
2022/04/01 00:36:48;;;;;;;11.50;9.82;;;5.70;99.90;;;;;;5090983;28;20019;-79
2022/04/01 00:39:16;;;;;;;13.10;10.85;;;5.60;99.90;;;;;;5090338;28;20023;-78
2022/04/01 00:41:46;;;;;;;11.02;9.88;;;5.70;99.90;;;;;;5088330;28;20042;-83
2022/04/01 00:44:17;;;;;;;13.05;11.50;;;5.70;99.90;;;;;;5112374;28;20493;-83
2022/04/01 00:46:45;;;;;;;12.00;10.52;;;5.50;99.90;;;;;;5101266;28;20020;-83
2022/04/01 00:49:11;;;;;;;13.35;10.95;;;5.60;99.90;;;;;;5098910;28;20115;-83
2022/04/01 00:51:37;;;;;;;11.82;10.60;;;5.50;99.90;;;;;;5112132;28;20043;-82
2022/04/01 00:54:06;;;;;;;10.63;9.27;;;5.60;99.90;;;;;;5116780;28;20032;-83
2022/04/01 00:56:33;;;;;;;12.90;10.07;;;5.50;99.90;;;;;;5091733;28;20030;-83
2022/04/01 00:58:59;;;;;;;11.90;10.07;;;5.50;99.90;;;;;;5106571;28;20024;-83
2022/04/01 01:01:26;;;;;;;11.98;10.40;;;5.50;99.90;;;;;;5104456;28;20055;-82
2022/04/01 01:03:51;;;;;;;14.07;10.77;;;5.70;99.90;;;;;;5100169;28;20458;-83
2022/04/01 01:06:19;;;;;;;10.25;9.15;;;5.60;99.90;;;;;;5098332;28;20023;-82
2022/04/01 01:08:45;;;;;;;11.20;10.00;;;5.50;99.90;;;;;;5095924;28;20114;-81
2022/04/01 01:11:11;;;;;;;11.77;9.80;;;5.30;99.90;;;;;;5086613;28;20493;-81
2022/04/01 01:13:37;;;;;;;10.10;8.88;;;5.30;99.90;;;;;;5112088;28;20032;-82
2022/04/01 01:16:03;;;;;;;12.15;9.73;;;5.20;99.90;;;;;;5116945;28;20031;-82
2022/04/01 01:18:29;;;;;;;10.88;9.00;;;5.10;99.90;;;;;;5090661;28;20024;-83
2022/04/01 01:20:55;;;;;;;9.27;7.93;;;5.10;99.90;;;;;;5111052;28;20477;-82
2022/04/01 01:23:28;;;;;;;11.15;9.95;;;5.10;99.90;;;;;;5118705;28;20486;-84
2022/04/01 01:25:54;;;;;;;11.18;9.88;;;5.10;99.90;;;;;;5107329;28;20470;-81
2022/04/01 01:28:21;;;;;;;10.23;9.05;;;5.20;99.90;;;;;;5114619;28;20057;-81
2022/04/01 01:30:47;;;;;;;10.52;9.43;;;5.10;99.90;;;;;;5119598;28;20024;-86
2022/04/01 01:33:12;;;;;;;10.23;9.13;;;5.00;99.90;;;;;;5115076;28;20030;-85
2022/04/01 01:35:38;;;;;;;10.52;8.93;;;5.10;99.90;;;;;;5101354;28;20103;-79
2022/04/01 01:38:04;;;;;;;11.02;9.57;;;5.00;99.90;;;;;;5117615;28;20020;-80
2022/04/01 01:40:30;;;;;;;10.80;8.95;;;5.00;99.90;;;;;;5122494;28;20481;-80
2022/04/01 01:42:56;;;;;;;10.95;9.85;;;5.00;99.90;;;;;;5103347;28;20035;-82
2022/04/01 01:45:21;;;;;;;10.60;9.50;;;5.00;99.90;;;;;;5111577;28;20032;-82
2022/04/01 01:47:47;;;;;;;10.90;9.80;;;4.90;99.90;;;;;;5109273;28;20036;-80
2022/04/01 01:55:41;;;;;;;12.23;10.10;;;4.90;99.90;;;;;;5106496;28;20693;-80
2022/04/01 01:58:07;;;;;;;14.00;10.70;;;4.90;99.90;;;;;;5099707;28;20020;-83
2022/04/01 02:00:32;;;;;;;11.20;10.10;;;4.90;99.90;;;;;;5108992;28;20069;-84
2022/04/01 02:02:58;;;;;;;11.05;9.95;;;4.80;99.90;;;;;;5088920;28;20024;-84
2022/04/01 02:05:23;;;;;;;10.27;9.27;;;4.80;99.90;;;;;;5111928;28;20064;-83
2022/04/01 02:07:49;;;;;;;11.55;10.25;;;4.80;99.90;;;;;;5111791;28;20023;-81
2022/04/01 02:10:15;;;;;;;12.00;10.00;;;4.90;99.90;;;;;;5114889;28;20023;-81
2022/04/01 02:12:43;;;;;;;10.07;8.95;;;4.80;99.90;;;;;;5088897;28;20020;-79
2022/04/01 02:15:12;;;;;;;11.50;10.23;;;4.80;99.90;;;;;;5093820;28;20443;-81
2022/04/01 02:17:38;;;;;;;10.65;9.55;;;4.90;99.90;;;;;;5092179;28;20416;-82
2022/04/01 02:20:09;;;;;;;10.20;9.10;;;4.80;99.90;;;;;;4993308;28;20400;-81
2022/04/01 02:22:38;;;;;;;10.27;9.15;;;4.80;99.90;;;;;;5053659;28;20108;-80
2022/04/01 02:25:05;;;;;;;10.93;9.23;;;4.80;99.90;;;;;;5033030;28;20036;-83
2022/04/01 02:27:31;;;;;;;12.23;10.68;;;4.80;99.90;;;;;;5046170;28;20407;-81
2022/04/01 02:29:57;;;;;;;11.63;10.43;;;4.80;99.90;;;;;;5050107;28;20036;-83
2022/04/01 02:32:23;;;;;;;12.38;11.07;;;4.80;99.90;;;;;;5050120;28;20021;-81
2022/04/01 02:34:49;;;;;;;11.88;10.27;;;4.70;99.90;;;;;;5033374;28;20033;-81
2022/04/01 02:37:16;;;;;;;12.15;10.80;;;4.70;99.90;;;;;;5050682;28;20515;-81
2022/04/01 02:39:42;;;;;;;11.82;10.27;;;4.80;99.90;;;;;;5029708;28;20013;-81
2022/04/01 02:42:08;;;;;;;10.98;9.88;;;4.90;99.90;;;;;;5053516;28;20056;-81
2022/04/01 02:44:34;;;;;;;12.07;10.43;;;5.00;99.90;;;;;;5041196;28;20068;-81
2022/04/01 02:47:00;;;;;;;11.63;10.43;;;4.90;99.90;;;;;;5050800;28;20041;-81
2022/04/01 02:49:25;;;;;;;12.98;11.77;;;4.90;99.90;;;;;;5047880;28;20047;-82
2022/04/01 02:51:53;;;;;;;12.02;10.70;;;4.90;99.90;;;;;;5027619;28;20044;-81
2022/04/01 02:54:22;;;;;;;12.55;10.82;;;4.90;99.90;;;;;;5032568;28;20033;-81
2022/04/01 02:56:48;;;;;;;12.45;11.15;;;4.90;99.90;;;;;;5045178;28;20060;-82
2022/04/01 02:59:13;;;;;;;12.55;10.45;;;5.10;99.90;;;;;;5029999;28;20437;-83
2022/04/01 03:01:40;;;;;;;11.80;10.35;;;5.20;99.90;;;;;;5033348;28;20025;-81
2022/04/01 03:04:10;;;;;;;11.63;10.43;;;5.20;99.90;;;;;;5031281;28;20029;-82
2022/04/01 03:06:40;;;;;;;11.60;10.40;;;5.20;99.90;;;;;;5035630;28;20104;-82
2022/04/01 03:09:07;;;;;;;11.23;10.05;;;5.20;99.90;;;;;;5024534;28;20043;-82
2022/04/01 03:11:32;;;;;;;11.48;9.73;;;5.10;99.90;;;;;;5022971;28;20030;-82
2022/04/01 03:13:58;;;;;;;12.15;10.85;;;5.00;99.90;;;;;;5037554;28;20028;-81
2022/04/01 03:16:24;;;;;;;12.38;10.80;;;5.00;99.90;;;;;;5045251;28;20034;-80
2022/04/01 03:18:50;;;;;;;11.57;10.38;;;5.00;99.90;;;;;;5051093;28;20513;-82
2022/04/01 03:21:16;;;;;;;10.77;9.68;;;4.90;99.90;;;;;;5058221;28;20029;-81
2022/04/01 03:23:43;;;;;;;10.93;9.52;;;4.80;99.90;;;;;;5049800;28;20501;-81
2022/04/01 03:26:10;;;;;;;11.15;9.98;;;4.80;99.90;;;;;;5031776;28;20036;-82
2022/04/01 03:28:35;;;;;;;11.10;9.98;;;4.80;99.90;;;;;;5043018;28;20017;-81
2022/04/01 03:31:06;;;;;;;11.95;10.68;;;4.70;99.90;;;;;;5058542;28;20077;-81
2022/04/01 03:33:36;;;;;;;12.43;10.18;;;4.70;99.90;;;;;;5031263;28;20021;-82
2022/04/01 03:36:03;;;;;;;10.23;9.20;;;4.80;99.90;;;;;;5039619;28;20049;-82
2022/04/01 03:38:29;;;;;;;11.27;10.05;;;4.70;99.90;;;;;;5050119;28;20039;-82
2022/04/01 03:40:55;;;;;;;11.63;10.35;;;4.90;99.90;;;;;;5039311;28;20033;-83
2022/04/01 03:43:23;;;;;;;11.57;10.38;;;4.80;99.90;;;;;;5040465;28;20394;-81
2022/04/01 03:45:50;;;;;;;12.93;11.10;;;4.80;99.90;;;;;;5030536;28;20041;-82
2022/04/01 03:48:26;;;;;;;11.88;10.35;;;4.70;99.90;;;;;;5041762;28;20040;-81
2022/04/01 03:50:56;;;;;;;11.70;10.50;;;4.70;99.90;;;;;;5060195;28;20079;-83
2022/04/01 03:53:28;;;;;;;13.30;11.90;;;4.80;99.90;;;;;;5058644;28;20108;-82
2022/04/01 03:55:56;;;;;;;12.93;11.60;;;4.80;99.90;;;;;;5039831;28;20040;-82
2022/04/01 03:58:29;;;;;;;18.10;11.77;;;4.90;99.90;;;;;;5041376;28;20029;-81
2022/04/01 04:00:58;;;;;;;13.45;11.38;;;4.80;99.90;;;;;;5033341;28;20029;-82
2022/04/01 04:03:24;;;;;;;12.60;11.30;;;4.80;99.90;;;;;;5055002;28;20084;-80
2022/04/01 04:05:51;;;;;;;15.43;11.27;;;4.80;99.90;;;;;;5072317;28;20037;-81
2022/04/01 04:08:22;;;;;;;14.50;12.93;;;5.10;99.90;;;;;;5076560;28;20013;-81
2022/04/01 04:10:51;;;;;;;12.65;10.85;;;5.20;99.90;;;;;;5047585;28;20014;-80
2022/04/01 04:13:18;;;;;;;13.18;11.07;;;5.20;99.90;;;;;;5054840;28;20029;-79
2022/04/01 04:15:51;;;;;;;13.18;11.90;;;5.20;99.90;;;;;;5052887;28;20025;-81
2022/04/01 04:18:18;;;;;;;12.85;11.15;;;5.20;99.90;;;;;;5050950;28;20083;-80
2022/04/01 04:20:55;;;;;;;13.65;12.25;;;5.10;99.90;;;;;;5035728;28;20021;-82
2022/04/01 04:23:37;;;;;;;13.55;11.90;;;5.10;99.90;;;;;;5033433;28;20109;-81
2022/04/01 04:26:13;;;;;;;11.35;10.25;;;5.20;99.90;;;;;;5052608;28;20079;-83
2022/04/01 04:28:40;;;;;;;11.63;10.43;;;5.30;99.90;;;;;;5036967;28;20021;-81
2022/04/01 04:31:08;;;;;;;12.55;11.25;;;5.20;99.90;;;;;;5059276;28;20021;-80
2022/04/01 04:33:42;;;;;;;11.02;9.77;;;5.20;99.90;;;;;;5068076;28;20037;-83
2022/04/01 04:36:10;;;;;;;10.32;9.32;;;5.30;99.90;;;;;;5044744;28;20033;-82
2022/04/01 04:38:38;;;;;;;9.07;8.18;;;5.20;99.90;;;;;;5038662;28;20379;-81
2022/04/01 04:41:08;;;;;;;9.68;8.25;;;5.20;99.90;;;;;;5035235;28;20053;-83
2022/04/01 04:43:38;;;;;;;9.77;8.88;;;5.20;99.90;;;;;;5058369;28;20097;-82
2022/04/01 04:46:05;;;;;;;9.85;8.95;;;5.10;99.90;;;;;;5054881;28;20448;-81
2022/04/01 04:48:33;;;;;;;10.57;9.18;;;5.10;99.90;;;;;;5026135;28;20537;-81
2022/04/01 04:51:02;;;;;;;10.43;9.32;;;5.10;99.90;;;;;;5058031;28;20037;-81
2022/04/01 04:53:30;;;;;;;10.20;9.23;;;5.00;99.90;;;;;;5043684;28;20094;-80
2022/04/01 04:55:59;;;;;;;7.97;7.28;;;5.00;99.90;;;;;;5035747;28;20029;-81
2022/04/01 04:58:39;;;;;;;9.63;8.50;;;5.00;99.90;;;;;;5038431;28;20071;-81
2022/04/01 05:01:18;;;;;;;7.78;7.00;;;5.10;99.90;;;;;;5033524;28;20021;-82
2022/04/01 05:04:15;;;;;;;7.43;6.72;;;5.10;99.90;;;;;;5047128;28;20048;-82
2022/04/01 05:07:06;;;;;;;7.97;7.22;;;5.00;99.90;;;;;;5056095;28;20022;-81
2022/04/01 05:09:42;;;;;;;;;;;4.80;99.90;;;;;;5032520;28;20474;-81
2022/04/01 05:12:24;;;;;;;7.15;6.55;;;4.90;99.90;;;;;;5049777;28;20410;-82
2022/04/01 05:15:08;;;;;;;7.38;6.68;;;4.70;99.90;;;;;;5046673;28;21648;-82
2022/04/01 05:17:49;;;;;;;8.15;7.38;;;4.70;99.90;;;;;;5053492;28;20044;-82
2022/04/01 05:20:18;;;;;;;7.57;6.32;;;4.70;99.90;;;;;;5050242;28;20426;-82
2022/04/01 05:22:50;;;;;;;7.90;6.95;;;4.70;99.90;;;;;;5036314;28;20021;-82
2022/04/01 05:25:19;;;;;;;7.80;7.10;;;4.70;99.90;;;;;;5028535;28;20053;-82
2022/04/01 05:27:57;;;;;;;7.82;7.13;;;4.50;99.90;;;;;;5051107;28;20087;-83
2022/04/01 05:30:28;;;;;;;7.78;7.07;;;4.60;99.90;;;;;;5032813;28;20033;-83
2022/04/01 05:32:59;;;;;;;15.80;8.15;;;4.60;99.90;;;;;;5037741;28;20030;-84
2022/04/01 05:35:29;;;;;;;8.50;7.70;;;4.70;99.90;;;;;;5046100;28;20029;-85
2022/04/01 05:37:55;;;;;;;9.07;7.75;;;4.80;99.90;;;;;;5047888;28;20086;-84
2022/04/01 05:40:22;;;;;;;7.97;7.20;;;4.80;99.90;;;;;;5044535;28;20025;-84
2022/04/01 05:42:48;;;;;;;7.57;6.47;;;4.80;99.90;;;;;;5065933;28;20055;-83
2022/04/01 05:45:16;;;;;;;5.78;5.28;;;4.60;99.90;;;;;;5071404;28;20028;-85
2022/04/01 05:47:43;;;;;;;6.45;5.85;;;4.50;99.90;;;;;;5053898;28;20085;-85
2022/04/01 05:50:09;;;;;;;5.50;5.00;;;4.40;99.90;;;;;;5070422;28;20047;-84
2022/04/01 05:52:37;;;;;;;4.95;4.45;;;4.20;99.90;;;;;;5062037;28;20029;-85
2022/04/01 05:55:03;;;;;;;5.45;4.95;;;4.10;99.90;;;;;;5056880;28;20028;-86
2022/04/01 05:57:29;;;;;;;6.50;5.90;;;4.10;99.90;;;;;;5055637;28;20352;-85
2022/04/01 05:59:54;;;;;;;5.07;4.60;;;4.10;99.90;;;;;;5044633;28;20075;-84
2022/04/01 06:02:58;;;;;;;6.00;5.38;;;4.10;99.90;;;;;;5070291;28;20025;-83
2022/04/01 06:05:29;;;;;;;5.80;5.30;;;4.10;99.90;;;;;;5049940;28;20100;-85
2022/04/01 06:08:01;;;;;;;6.90;6.20;;;4.10;99.90;;;;;;5043602;28;20032;-84
2022/04/01 06:10:40;;;;;;;8.02;7.22;;;4.10;99.90;;;;;;5053516;28;20029;-84
2022/04/01 06:13:05;;;;;;;7.70;6.95;;;4.20;99.90;;;;;;5067901;28;20048;-84
2022/04/01 06:15:53;;;;;;;10.95;8.88;;;4.30;99.90;;;;;;5058737;28;20107;-84
2022/04/01 06:19:06;;;;;;;11.25;9.52;;;4.10;99.90;;;;;;5053831;28;20025;-84
2022/04/01 06:21:38;;;;;;;13.18;10.45;;;4.00;99.90;;;;;;4970675;28;20022;-85
2022/04/01 06:24:09;;;;;;;8.63;7.82;;;4.10;99.90;;;;;;5060190;28;20076;-83
2022/04/01 06:26:40;;;;;;;8.55;6.57;;;4.20;99.90;;;;;;5064638;28;20028;-83
2022/04/01 06:29:27;;;;;;;8.63;7.78;;;4.10;99.90;;;;;;5069260;28;20025;-84
2022/04/01 06:31:57;;;;;;;7.70;6.47;;;4.10;99.90;;;;;;5049006;28;20037;-83
2022/04/01 06:34:36;;;;;;;8.60;7.70;;;4.00;99.90;;;;;;5056472;28;20032;-83
2022/04/01 06:37:04;;;;;;;12.00;10.60;;;4.10;99.90;;;;;;5065679;28;20025;-86
2022/04/01 06:39:56;;;;;;;13.55;11.45;;;4.10;99.90;;;;;;5061646;28;20052;-84
2022/04/01 06:42:25;;;;;;;13.90;11.65;;;4.10;99.90;;;;;;5058996;28;20036;-83
2022/04/01 06:44:51;;;;;;;12.25;10.23;;;4.10;99.90;;;;;;5057604;28;20100;-84
2022/04/01 06:47:17;;;;;;;12.63;11.02;;;3.90;99.90;;;;;;5040316;28;20052;-83
2022/04/01 06:49:43;;;;;;;13.65;11.48;;;4.00;99.90;;;;;;5046330;28;20086;-86
2022/04/01 06:52:08;;;;;;;16.10;12.00;;;4.00;99.90;;;;;;5066527;28;20025;-83
2022/04/01 06:54:35;;;;;;;12.68;10.80;;;4.00;99.90;;;;;;5047827;28;20025;-84
2022/04/01 06:57:02;;;;;;;14.00;10.98;;;3.90;99.90;;;;;;5048993;28;20061;-83
2022/04/01 06:59:28;;;;;;;14.48;12.38;;;3.80;99.90;;;;;;5068220;28;20025;-85
2022/04/01 07:01:54;;;;;;;14.95;12.57;;;3.90;99.90;;;;;;5065764;28;20037;-83
2022/04/01 07:04:19;;;;;;;17.55;15.13;;;3.90;99.90;;;;;;5064332;28;20053;-82
2022/04/01 07:06:46;;;;;;;13.82;12.38;;;4.00;99.90;;;;;;5065707;28;20036;-84
2022/04/01 07:09:11;;;;;;;16.30;13.90;;;4.10;99.90;;;;;;5057571;28;20091;-84
2022/04/01 07:11:37;;;;;;;14.80;12.88;;;4.10;99.90;;;;;;5065159;28;20088;-84
2022/04/01 07:14:03;;;;;;;17.17;13.95;;;4.10;99.90;;;;;;5045291;28;20029;-85
2022/04/01 07:16:29;;;;;;;14.93;12.52;;;3.90;99.90;;;;;;5048452;28;20383;-82
2022/04/01 07:18:54;;;;;;;14.35;12.82;;;3.90;99.90;;;;;;5065168;28;20033;-83
2022/04/01 07:21:20;;;;;;;14.25;12.20;;;3.90;99.90;;;;;;5055450;28;20029;-85
2022/04/01 07:23:46;;;;;;;14.10;10.70;;;3.80;99.90;;;;;;5053902;28;20396;-83
2022/04/01 07:26:11;;;;;;;14.70;12.52;;;3.80;99.90;;;;;;5046270;28;20033;-83
2022/04/01 07:28:37;;;;;;;12.35;11.05;;;3.80;99.90;;;;;;5040331;28;20025;-85
2022/04/01 07:32:29;;;;;;;12.70;11.40;;;3.80;99.90;;;;;;5048525;28;20025;-83
2022/04/01 07:33:48;;;;;;;13.85;11.73;;;3.70;99.90;;;;;;5064458;28;20029;-83
2022/04/01 07:36:13;;;;;;;11.93;10.50;;;3.70;99.90;;;;;;5047663;28;20048;-84
2022/04/01 07:38:39;;;;;;;13.88;11.80;;;3.70;99.90;;;;;;5040361;28;20060;-83
2022/04/01 07:41:05;;;;;;;12.90;11.55;;;3.70;99.90;;;;;;5054733;28;20025;-82
2022/04/01 07:43:31;;;;;;;12.48;11.18;;;3.70;99.90;;;;;;5061929;28;20037;-84
2022/04/01 07:45:57;;;;;;;13.63;12.23;;;3.80;99.90;;;;;;5059894;28;20021;-84
2022/04/01 07:48:23;;;;;;;12.55;10.95;;;3.70;99.90;;;;;;5042032;28;20055;-84
2022/04/01 07:50:49;;;;;;;12.05;10.75;;;3.70;99.90;;;;;;5044087;28;20371;-79
2022/04/01 07:53:16;;;;;;;12.00;10.55;;;3.70;99.90;;;;;;5058562;28;20025;-79
2022/04/01 07:55:43;;;;;;;12.05;10.35;;;3.70;99.90;;;;;;5033201;28;20033;-79
2022/04/01 07:58:10;;;;;;;12.40;11.20;;;3.80;99.90;;;;;;5034871;28;20021;-78
2022/04/01 08:00:35;;;;;;;14.00;12.60;;;3.70;99.90;;;;;;5056490;28;20121;-79
2022/04/01 08:03:01;;;;;;;13.00;11.43;;;3.80;99.90;;;;;;5059182;28;20013;-80
2022/04/01 08:05:27;;;;;;;12.93;11.38;;;3.90;99.90;;;;;;5056415;28;20068;-79
2022/04/01 08:07:53;;;;;;;13.18;11.10;;;3.90;99.90;;;;;;5040090;28;20089;-79
2022/04/01 08:10:18;;;;;;;14.60;12.50;;;3.90;99.90;;;;;;5032131;28;20033;-78
2022/04/01 08:12:44;;;;;;;14.25;12.55;;;4.00;99.90;;;;;;5039651;28;20022;-78
2022/04/01 08:15:11;;;;;;;14.35;12.38;;;3.80;99.90;;;;;;5044716;28;20029;-80
2022/04/01 08:17:37;;;;;;;14.18;12.13;;;3.80;99.90;;;;;;5056161;28;20014;-79
2022/04/01 08:20:03;;;;;;;11.95;10.73;;;3.90;99.90;;;;;;5035559;28;20029;-79
2022/04/01 08:22:29;;;;;;;13.80;12.40;;;3.80;99.90;;;;;;5045959;28;20087;-79
2022/04/01 08:24:55;;;;;;;13.80;11.98;;;3.80;99.90;;;;;;5040233;28;20033;-79
2022/04/01 08:27:21;;;;;;;14.05;12.55;;;3.90;99.90;;;;;;5039920;28;20052;-79
2022/04/01 08:29:46;;;;;;;14.45;12.40;;;3.80;99.90;;;;;;5036432;28;20029;-78
2022/04/01 08:32:12;;;;;;;12.85;10.95;;;3.90;99.90;;;;;;5056097;28;20026;-78
2022/04/01 08:34:38;;;;;;;14.18;11.43;;;3.80;99.90;;;;;;5042593;28;20055;-79
2022/04/01 08:37:06;;;;;;;13.50;11.57;;;4.00;99.90;;;;;;5045016;28;20433;-78
2022/04/01 08:39:32;;;;;;;11.93;10.70;;;4.00;99.90;;;;;;5042639;28;20059;-78
2022/04/01 08:41:57;;;;;;;12.52;10.90;;;4.00;99.90;;;;;;5041792;28;20029;-79
2022/04/01 08:44:23;;;;;;;12.65;11.32;;;4.10;99.90;;;;;;5042311;28;20101;-78
2022/04/01 08:46:49;;;;;;;13.77;10.60;;;4.00;99.90;;;;;;5052726;28;20025;-79
2022/04/01 08:49:15;;;;;;;12.35;11.05;;;4.00;99.90;;;;;;5057705;28;20369;-79
2022/04/01 08:51:40;;;;;;;13.77;10.02;;;4.00;99.90;;;;;;5047065;28;20028;-79
2022/04/01 08:54:06;;;;;;;11.60;10.40;;;3.90;99.90;;;;;;5053459;28;20527;-80
2022/04/01 08:56:32;;;;;;;12.77;10.95;;;3.80;99.90;;;;;;5046388;28;20025;-79
2022/04/01 08:58:58;;;;;;;10.27;9.27;;;3.90;99.90;;;;;;5048514;28;20017;-79
2022/04/01 09:01:23;;;;;;;10.95;9.65;;;3.90;99.90;;;;;;5065329;28;20021;-79
2022/04/01 09:03:49;;;;;;;9.80;8.75;;;3.90;99.90;;;;;;5049825;28;20036;-78
2022/04/01 09:06:18;;;;;;;11.00;9.57;;;3.90;99.90;;;;;;5060571;28;20048;-79
2022/04/01 09:08:44;;;;;;;11.07;9.15;;;3.80;99.90;;;;;;5036574;28;20033;-79
2022/04/01 09:11:17;;;;;;;10.68;9.13;;;3.70;99.90;;;;;;5058978;28;20054;-79
2022/04/01 09:13:43;;;;;;;9.13;8.15;;;3.90;99.90;;;;;;5037763;28;20092;-80
2022/04/01 09:16:21;;;;;;;9.50;8.50;;;3.80;99.90;;;;;;5065123;28;20052;-79
2022/04/01 09:18:47;;;;;;;11.32;9.63;;;3.90;99.90;;;;;;5049522;28;20093;-78
2022/04/01 09:21:14;;;;;;;11.02;9.93;;;4.20;99.90;;;;;;5059012;28;20035;-79
2022/04/01 09:23:46;;;;;;;12.68;10.20;;;4.00;99.90;;;;;;5054248;28;20028;-79
2022/04/01 09:26:12;;;;;;;11.02;9.95;;;4.00;99.90;;;;;;5057452;28;20035;-78
2022/04/01 09:28:40;;;;;;;12.13;10.88;;;4.30;99.90;;;;;;5060696;28;20050;-80
2022/04/01 09:31:11;;;;;;;10.45;9.45;;;4.10;99.90;;;;;;5056979;28;20483;-76
2022/04/01 09:33:42;;;;;;;10.60;9.50;;;4.20;99.90;;;;;;5045823;28;20665;-77
2022/04/01 09:36:12;;;;;;;11.20;10.10;;;4.20;99.90;;;;;;5045043;28;20032;-78
2022/04/01 09:38:37;;;;;;;11.45;8.32;;;4.00;99.90;;;;;;5043848;28;20397;-77
2022/04/01 09:41:06;;;;;;;11.07;9.98;;;3.80;99.90;;;;;;5025779;28;20108;-78
2022/04/01 09:43:38;;;;;;;10.43;9.43;;;3.80;99.90;;;;;;5033920;28;20061;-77
2022/04/01 09:46:20;;;;;;;9.68;8.77;;;3.70;99.90;;;;;;5042121;28;20387;-76
2022/04/01 09:48:47;;;;;;;7.65;6.85;;;3.90;99.90;;;;;;5047913;28;20032;-77
2022/04/01 09:51:13;;;;;;;7.90;6.82;;;3.70;99.90;;;;;;5043671;28;20033;-76
2022/04/01 09:53:39;;;;;;;8.40;7.20;;;3.80;99.90;;;;;;5044199;28;20033;-77
2022/04/01 09:56:05;;;;;;;7.28;6.55;;;3.80;99.90;;;;;;5044110;28;20040;-77
2022/04/01 09:58:31;;;;;;;6.80;6.05;;;3.80;99.90;;;;;;5031862;28;20050;-76
2022/04/01 10:00:59;;;;;;;6.93;6.03;;;3.70;99.90;;;;;;5046528;28;20048;-76
2022/04/01 10:03:25;;;;;;;6.70;5.78;;;3.70;99.90;;;;;;5032764;28;20449;-76
2022/04/01 10:05:51;;;;;;;6.25;5.65;;;3.80;99.90;;;;;;5046280;28;20033;-77
2022/04/01 10:08:17;;;;;;;6.72;6.10;;;3.80;99.90;;;;;;5025858;28;20041;-78
2022/04/01 10:10:43;;;;;;;6.85;6.15;;;3.80;99.90;;;;;;5050575;28;20029;-77
2022/04/01 10:13:31;;;;;;;6.38;5.70;;;3.90;99.90;;;;;;5045588;28;20111;-77
2022/04/01 10:15:58;;;;;;;6.18;5.57;;;4.00;99.90;;;;;;5047378;28;20032;-77
2022/04/01 10:18:25;;;;;;;4.90;4.50;;;4.00;99.90;;;;;;5048413;28;20031;-76
2022/04/01 10:20:55;;;;;;;4.60;4.20;;;4.30;99.90;;;;;;5038216;28;20087;-76
2022/04/01 10:23:24;;;;;;;5.15;4.65;;;3.90;99.90;;;;;;5028812;28;20025;-77
2022/04/01 10:26:04;;;;;;;5.97;5.47;;;3.70;99.90;;;;;;5044354;28;20442;-76
2022/04/01 10:28:29;;;;;;;4.77;3.93;;;3.70;99.90;;;;;;5046063;28;20029;-77
2022/04/01 10:31:00;;;;;;;4.53;4.10;;;3.80;99.90;;;;;;5038574;28;20095;-77
2022/04/01 10:33:33;;;;;;;3.72;3.42;;;3.90;99.90;;;;;;5044795;28;20029;-76
2022/04/01 10:35:59;;;;;;;5.13;4.63;;;4.30;99.90;;;;;;5023787;28;20507;-76
2022/04/01 10:38:30;;;;;;;4.07;3.67;;;4.30;99.90;;;;;;5026399;28;20021;-77
2022/04/01 10:41:12;;;;;;;3.35;3.05;;;4.00;99.90;;;;;;5046022;28;20021;-78
2022/04/01 10:43:41;;;;;;;3.35;3.05;;;3.80;99.90;;;;;;5025029;28;20510;-77
2022/04/01 10:46:15;;;;;;;3.28;2.97;;;3.70;99.90;;;;;;5042031;28;20025;-76
2022/04/01 10:52:14;;;;;;;4.17;3.77;;;3.70;99.90;;;;;;5045341;28;20044;-75
2022/04/01 10:54:43;;;;;;;3.40;3.10;;;3.60;99.90;;;;;;5021538;28;20594;-76
2022/04/01 10:57:24;;;;;;;3.58;3.28;;;3.70;99.90;;;;;;5029156;28;20029;-76
2022/04/01 10:59:51;;;;;;;4.28;3.15;;;3.60;99.90;;;;;;5042594;28;20072;-77
2022/04/01 11:02:22;;;;;;;2.85;2.63;;;3.70;99.90;;;;;;5050495;28;20021;-76
2022/04/01 11:04:48;;;;;;;;;;;3.60;99.90;;;;;;5032239;28;20056;-77
2022/04/01 11:07:23;;;;;;;4.03;3.60;;;3.60;99.90;;;;;;5029067;28;19917;-80
2022/04/01 11:10:06;;;;;;;4.35;3.28;;;3.80;99.90;;;;;;5043811;28;20040;-81
2022/04/01 11:12:33;;;;;;;3.88;3.58;;;3.90;99.90;;;;;;5053703;28;20028;-80
2022/04/01 11:14:59;;;;;;;4.05;3.75;;;3.80;99.90;;;;;;5064529;28;20021;-81
2022/04/01 11:17:34;;;;;;;3.78;3.40;;;3.80;99.90;;;;;;5038171;28;20084;-80
2022/04/01 11:20:10;;;;;;;3.50;3.25;;;4.10;99.90;;;;;;5059849;28;20093;-81
2022/04/01 11:22:52;;;;;;;4.18;3.78;;;4.40;99.90;;;;;;5044678;28;20021;-81
2022/04/01 11:25:33;;;;;;;3.90;3.60;;;4.40;99.90;;;;;;5061660;28;20052;-80
2022/04/01 11:28:01;;;;;;;3.58;3.22;;;4.10;99.90;;;;;;5047053;28;20033;-80
2022/04/01 11:30:48;;;;;;;4.68;4.25;;;3.70;99.90;;;;;;5055326;28;20029;-79
2022/04/01 11:33:16;;;;;;;3.88;3.58;;;3.90;99.90;;;;;;5046302;28;20037;-79
2022/04/01 11:35:49;;;;;;;3.72;3.42;;;4.10;99.90;;;;;;5053177;28;20063;-80
2022/04/01 11:38:24;;;;;;;3.55;3.25;;;4.20;99.90;;;;;;5043516;28;20027;-79
2022/04/01 11:40:56;;;;;;;3.35;3.05;;;4.10;99.90;;;;;;5054252;28;20030;-80
2022/04/01 11:43:24;;;;;;;4.05;3.75;;;4.00;99.90;;;;;;5051517;28;20025;-81
2022/04/01 11:46:04;;;;;;;4.22;3.35;;;4.30;99.90;;;;;;5053761;28;20037;-81
2022/04/01 11:48:46;;;;;;;3.23;2.93;;;4.20;99.90;;;;;;5061906;28;20025;-80
2022/04/01 11:51:14;;;;;;;4.25;3.85;;;4.00;99.90;;;;;;5047870;28;20036;-80
2022/04/01 11:53:52;;;;;;;4.68;3.72;;;4.20;99.90;;;;;;5060371;28;20029;-81
2022/04/01 11:56:20;;;;;;;3.78;3.42;;;4.50;99.90;;;;;;5051520;28;20062;-81
2022/04/01 11:59:00;;;;;;;3.30;3.03;;;4.70;99.90;;;;;;5070338;28;20033;-79
2022/04/01 12:01:30;;;;;;;3.67;3.38;;;4.70;99.90;;;;;;5050338;28;20053;-83
2022/04/01 12:04:04;;;;;;;4.28;3.88;;;4.60;99.90;;;;;;5060814;28;20024;-82
2022/04/01 12:09:14;;;;;;;3.90;3.60;;;4.60;99.90;;;;;;5067075;28;20128;-80
2022/04/01 12:11:41;;;;;;;4.25;3.70;;;4.80;99.90;;;;;;5062690;28;20029;-80
2022/04/01 12:14:07;;;;;;;4.35;3.95;;;4.50;99.90;;;;;;5064621;28;20017;-80
2022/04/01 12:16:44;;;;;;;4.70;4.22;;;4.10;99.90;;;;;;5068579;28;20573;-81
2022/04/01 12:19:20;;;;;;;6.28;5.25;;;3.60;99.90;;;;;;5064107;28;20057;-80
2022/04/01 12:21:57;;;;;;;5.93;5.32;;;3.70;99.90;;;;;;5063134;28;20029;-81
2022/04/01 12:24:28;;;;;;;5.47;5.07;;;3.80;99.90;;;;;;5038453;28;20174;-80
2022/04/01 12:26:54;;;;;;;5.82;5.28;;;4.00;99.90;;;;;;5037457;28;20032;-81
2022/04/01 12:29:21;;;;;;;7.28;6.68;;;4.00;99.90;;;;;;5060956;28;20036;-80
2022/04/01 12:32:07;;;;;;;8.75;5.60;;;3.90;99.90;;;;;;5045127;28;20040;-80
2022/04/01 12:34:33;;;;;;;6.50;6.00;;;4.50;99.90;;;;;;5044473;28;20025;-80
2022/04/01 12:37:07;;;;;;;5.35;4.93;;;4.40;99.90;;;;;;5049314;28;20017;-80
2022/04/01 12:39:35;;;;;;;7.30;5.93;;;3.90;99.90;;;;;;5064384;28;20025;-79
2022/04/01 12:42:07;;;;;;;6.32;5.75;;;3.80;99.90;;;;;;5045381;28;20116;-79
2022/04/01 12:44:35;;;;;;;7.75;6.93;;;4.00;99.90;;;;;;5042948;28;20017;-81
2022/04/01 12:47:03;;;;;;;5.18;4.70;;;4.30;99.90;;;;;;5038364;28;20040;-81
2022/04/01 12:49:33;;;;;;;5.85;5.30;;;3.80;99.90;;;;;;5060782;28;20040;-81
2022/04/01 12:52:09;;;;;;;8.38;5.75;;;3.60;99.90;;;;;;5057740;28;20037;-84
2022/04/01 12:54:39;;;;;;;6.93;6.32;;;3.50;99.90;;;;;;5061732;28;20056;-85
2022/04/01 12:57:07;;;;;;;6.35;5.75;;;3.60;99.90;;;;;;5039186;28;20018;-84
2022/04/01 12:59:38;;;;;;;6.07;5.57;;;3.60;99.90;;;;;;5043675;28;20657;-84
2022/04/01 13:02:15;;;;;;;6.20;5.68;;;3.40;99.90;;;;;;5063945;28;20036;-84
2022/04/01 13:04:45;;;;;;;7.63;6.93;;;3.40;99.90;;;;;;5066892;28;20103;-84
2022/04/01 13:07:29;;;;;;;7.37;6.67;;;3.50;99.90;;;;;;5065879;28;20045;-83
2022/04/01 13:10:01;;;;;;;6.78;6.18;;;3.30;99.90;;;;;;5064876;28;20267;-85
2022/04/01 13:12:40;;;;;;;7.32;6.63;;;3.30;99.90;;;;;;5055976;28;20044;-83